sensor_id;sensor_type;location;lat;lon;timestamp;P1;durP1;ratioP1;P2;durP2;ratioP2
12052;SDS011;6087;48.982;12.064;2023-04-28T00:02:26;5.63;;;4.20;;
12052;SDS011;6087;48.982;12.064;2023-04-28T00:04:53;8.55;;;5.13;;
12052;SDS011;6087;48.982;12.064;2023-04-28T00:07:24;5.78;;;4.75;;
12052;SDS011;6087;48.982;12.064;2023-04-28T00:09:51;5.43;;;4.38;;
12052;SDS011;6087;48.982;12.064;2023-04-28T00:12:18;6.68;;;4.93;;
12052;SDS011;6087;48.982;12.064;2023-04-28T00:14:45;6.63;;;4.80;;
12052;SDS011;6087;48.982;12.064;2023-04-28T00:17:12;6.13;;;4.28;;
12052;SDS011;6087;48.982;12.064;2023-04-28T00:19:39;6.72;;;4.95;;
12052;SDS011;6087;48.982;12.064;2023-04-28T00:22:09;5.20;;;4.15;;
12052;SDS011;6087;48.982;12.064;2023-04-28T00:24:37;7.63;;;4.60;;
12052;SDS011;6087;48.982;12.064;2023-04-28T00:27:05;8.03;;;5.17;;
12052;SDS011;6087;48.982;12.064;2023-04-28T00:29:32;7.33;;;5.20;;
12052;SDS011;6087;48.982;12.064;2023-04-28T00:31:59;7.95;;;4.85;;
12052;SDS011;6087;48.982;12.064;2023-04-28T00:34:28;6.55;;;5.28;;
12052;SDS011;6087;48.982;12.064;2023-04-28T00:36:58;5.18;;;4.68;;
12052;SDS011;6087;48.982;12.064;2023-04-28T00:39:25;7.68;;;5.07;;
12052;SDS011;6087;48.982;12.064;2023-04-28T00:41:53;5.80;;;5.10;;
12052;SDS011;6087;48.982;12.064;2023-04-28T00:44:20;7.80;;;4.70;;
12052;SDS011;6087;48.982;12.064;2023-04-28T00:46:47;7.13;;;4.93;;
12052;SDS011;6087;48.982;12.064;2023-04-28T00:49:14;5.00;;;4.50;;
12052;SDS011;6087;48.982;12.064;2023-04-28T00:51:41;6.75;;;4.90;;
12052;SDS011;6087;48.982;12.064;2023-04-28T00:54:08;6.65;;;5.05;;
12052;SDS011;6087;48.982;12.064;2023-04-28T00:56:39;6.10;;;4.38;;
12052;SDS011;6087;48.982;12.064;2023-04-28T00:59:07;8.57;;;4.78;;
12052;SDS011;6087;48.982;12.064;2023-04-28T01:01:34;6.43;;;4.68;;
12052;SDS011;6087;48.982;12.064;2023-04-28T01:04:01;7.70;;;6.10;;
12052;SDS011;6087;48.982;12.064;2023-04-28T01:06:28;8.03;;;4.80;;
12052;SDS011;6087;48.982;12.064;2023-04-28T01:08:57;7.05;;;5.03;;
12052;SDS011;6087;48.982;12.064;2023-04-28T01:11:23;5.53;;;4.47;;
12052;SDS011;6087;48.982;12.064;2023-04-28T01:13:50;7.38;;;4.20;;
12052;SDS011;6087;48.982;12.064;2023-04-28T01:16:19;5.90;;;5.00;;
12052;SDS011;6087;48.982;12.064;2023-04-28T01:18:46;9.67;;;4.87;;
12052;SDS011;6087;48.982;12.064;2023-04-28T01:21:13;9.10;;;4.50;;
12052;SDS011;6087;48.982;12.064;2023-04-28T01:23:46;7.45;;;4.85;;
12052;SDS011;6087;48.982;12.064;2023-04-28T01:26:12;6.47;;;4.80;;
12052;SDS011;6087;48.982;12.064;2023-04-28T01:28:39;5.85;;;4.38;;
12052;SDS011;6087;48.982;12.064;2023-04-28T01:31:06;4.82;;;4.32;;
12052;SDS011;6087;48.982;12.064;2023-04-28T01:33:33;6.50;;;4.53;;
12052;SDS011;6087;48.982;12.064;2023-04-28T01:36:00;9.10;;;4.63;;
12052;SDS011;6087;48.982;12.064;2023-04-28T01:38:27;5.10;;;4.60;;
12052;SDS011;6087;48.982;12.064;2023-04-28T01:41:02;9.43;;;4.67;;
12052;SDS011;6087;48.982;12.064;2023-04-28T01:43:29;4.87;;;4.40;;
12052;SDS011;6087;48.982;12.064;2023-04-28T01:45:56;5.50;;;4.50;;
12052;SDS011;6087;48.982;12.064;2023-04-28T01:48:23;4.63;;;4.10;;
12052;SDS011;6087;48.982;12.064;2023-04-28T01:50:52;4.60;;;4.20;;
12052;SDS011;6087;48.982;12.064;2023-04-28T01:53:29;6.23;;;4.30;;
12052;SDS011;6087;48.982;12.064;2023-04-28T01:55:59;7.67;;;4.97;;
12052;SDS011;6087;48.982;12.064;2023-04-28T01:58:27;8.73;;;4.70;;
12052;SDS011;6087;48.982;12.064;2023-04-28T02:00:54;5.77;;;4.67;;
12052;SDS011;6087;48.982;12.064;2023-04-28T02:03:24;5.40;;;4.85;;
12052;SDS011;6087;48.982;12.064;2023-04-28T02:05:51;6.40;;;4.37;;
12052;SDS011;6087;48.982;12.064;2023-04-28T02:08:19;7.53;;;4.60;;
12052;SDS011;6087;48.982;12.064;2023-04-28T02:10:49;6.10;;;4.73;;
12052;SDS011;6087;48.982;12.064;2023-04-28T02:13:16;5.57;;;4.47;;
12052;SDS011;6087;48.982;12.064;2023-04-28T02:15:44;4.77;;;4.37;;
12052;SDS011;6087;48.982;12.064;2023-04-28T02:18:14;5.27;;;4.67;;
12052;SDS011;6087;48.982;12.064;2023-04-28T02:20:43;5.43;;;4.83;;
12052;SDS011;6087;48.982;12.064;2023-04-28T02:23:10;7.23;;;4.83;;
12052;SDS011;6087;48.982;12.064;2023-04-28T02:25:37;7.17;;;3.97;;
12052;SDS011;6087;48.982;12.064;2023-04-28T02:28:04;6.03;;;4.53;;
12052;SDS011;6087;48.982;12.064;2023-04-28T02:30:31;4.53;;;4.13;;
12052;SDS011;6087;48.982;12.064;2023-04-28T02:32:59;4.73;;;4.20;;
12052;SDS011;6087;48.982;12.064;2023-04-28T02:35:26;5.77;;;4.70;;
12052;SDS011;6087;48.982;12.064;2023-04-28T02:37:53;4.97;;;4.47;;
12052;SDS011;6087;48.982;12.064;2023-04-28T02:40:20;4.77;;;4.37;;
12052;SDS011;6087;48.982;12.064;2023-04-28T02:42:47;5.10;;;4.10;;
12052;SDS011;6087;48.982;12.064;2023-04-28T02:45:14;4.90;;;3.87;;
12052;SDS011;6087;48.982;12.064;2023-04-28T02:47:40;6.70;;;4.70;;
12052;SDS011;6087;48.982;12.064;2023-04-28T02:50:09;6.77;;;4.47;;
12052;SDS011;6087;48.982;12.064;2023-04-28T02:52:36;5.67;;;4.07;;
12052;SDS011;6087;48.982;12.064;2023-04-28T02:55:03;7.50;;;4.80;;
12052;SDS011;6087;48.982;12.064;2023-04-28T02:57:30;5.53;;;4.20;;
12052;SDS011;6087;48.982;12.064;2023-04-28T02:59:57;5.10;;;3.90;;
12052;SDS011;6087;48.982;12.064;2023-04-28T03:02:24;5.60;;;4.40;;
12052;SDS011;6087;48.982;12.064;2023-04-28T03:04:51;4.37;;;3.40;;
12052;SDS011;6087;48.982;12.064;2023-04-28T03:07:19;7.03;;;4.33;;
12052;SDS011;6087;48.982;12.064;2023-04-28T03:09:45;6.57;;;4.70;;
12052;SDS011;6087;48.982;12.064;2023-04-28T03:12:12;4.67;;;4.03;;
12052;SDS011;6087;48.982;12.064;2023-04-28T03:14:39;5.93;;;3.87;;
12052;SDS011;6087;48.982;12.064;2023-04-28T03:17:08;6.43;;;4.23;;
12052;SDS011;6087;48.982;12.064;2023-04-28T03:19:38;6.30;;;4.47;;
12052;SDS011;6087;48.982;12.064;2023-04-28T03:22:05;5.20;;;4.40;;
12052;SDS011;6087;48.982;12.064;2023-04-28T03:24:33;4.23;;;3.83;;
12052;SDS011;6087;48.982;12.064;2023-04-28T03:27:02;4.07;;;3.67;;
12052;SDS011;6087;48.982;12.064;2023-04-28T03:29:29;4.40;;;4.00;;
12052;SDS011;6087;48.982;12.064;2023-04-28T03:31:57;6.70;;;4.50;;
12052;SDS011;6087;48.982;12.064;2023-04-28T03:34:23;6.03;;;4.03;;
12052;SDS011;6087;48.982;12.064;2023-04-28T03:36:50;5.77;;;4.03;;
12052;SDS011;6087;48.982;12.064;2023-04-28T03:39:17;5.47;;;4.40;;
12052;SDS011;6087;48.982;12.064;2023-04-28T03:41:46;7.07;;;4.10;;
12052;SDS011;6087;48.982;12.064;2023-04-28T03:44:12;4.83;;;4.00;;
12052;SDS011;6087;48.982;12.064;2023-04-28T03:46:48;5.13;;;4.27;;
12052;SDS011;6087;48.982;12.064;2023-04-28T03:49:15;7.30;;;4.50;;
12052;SDS011;6087;48.982;12.064;2023-04-28T03:51:44;4.77;;;3.30;;
12052;SDS011;6087;48.982;12.064;2023-04-28T03:54:11;6.03;;;4.20;;
12052;SDS011;6087;48.982;12.064;2023-04-28T03:56:38;4.27;;;3.63;;
12052;SDS011;6087;48.982;12.064;2023-04-28T03:59:06;3.70;;;3.37;;
12052;SDS011;6087;48.982;12.064;2023-04-28T04:01:35;5.37;;;3.83;;
12052;SDS011;6087;48.982;12.064;2023-04-28T04:04:02;4.40;;;4.00;;
12052;SDS011;6087;48.982;12.064;2023-04-28T04:06:29;4.83;;;3.70;;
12052;SDS011;6087;48.982;12.064;2023-04-28T04:08:57;5.80;;;3.70;;
12052;SDS011;6087;48.982;12.064;2023-04-28T04:11:24;7.00;;;4.43;;
12052;SDS011;6087;48.982;12.064;2023-04-28T04:13:51;5.50;;;3.90;;
12052;SDS011;6087;48.982;12.064;2023-04-28T04:16:19;6.90;;;3.67;;
12052;SDS011;6087;48.982;12.064;2023-04-28T04:18:46;4.50;;;4.10;;
12052;SDS011;6087;48.982;12.064;2023-04-28T04:21:13;4.73;;;4.23;;
12052;SDS011;6087;48.982;12.064;2023-04-28T04:23:40;3.93;;;3.63;;
12052;SDS011;6087;48.982;12.064;2023-04-28T04:26:06;5.47;;;3.60;;
12052;SDS011;6087;48.982;12.064;2023-04-28T04:28:33;4.30;;;3.73;;
12052;SDS011;6087;48.982;12.064;2023-04-28T04:31:00;4.13;;;3.73;;
12052;SDS011;6087;48.982;12.064;2023-04-28T04:33:28;4.10;;;3.70;;
12052;SDS011;6087;48.982;12.064;2023-04-28T04:35:55;7.53;;;3.97;;
12052;SDS011;6087;48.982;12.064;2023-04-28T04:38:22;5.43;;;3.53;;
12052;SDS011;6087;48.982;12.064;2023-04-28T04:40:49;4.73;;;3.93;;
12052;SDS011;6087;48.982;12.064;2023-04-28T04:43:16;5.17;;;3.27;;
12052;SDS011;6087;48.982;12.064;2023-04-28T04:45:43;5.33;;;3.53;;
12052;SDS011;6087;48.982;12.064;2023-04-28T04:48:10;3.87;;;3.47;;
12052;SDS011;6087;48.982;12.064;2023-04-28T04:50:38;4.90;;;4.07;;
12052;SDS011;6087;48.982;12.064;2023-04-28T04:53:06;6.53;;;4.20;;
12052;SDS011;6087;48.982;12.064;2023-04-28T04:55:33;5.50;;;4.80;;
12052;SDS011;6087;48.982;12.064;2023-04-28T04:58:00;4.17;;;3.77;;
12052;SDS011;6087;48.982;12.064;2023-04-28T05:00:27;4.17;;;3.80;;
12052;SDS011;6087;48.982;12.064;2023-04-28T05:02:53;7.60;;;4.10;;
12052;SDS011;6087;48.982;12.064;2023-04-28T05:05:20;7.83;;;4.43;;
12052;SDS011;6087;48.982;12.064;2023-04-28T05:07:48;5.50;;;3.70;;
12052;SDS011;6087;48.982;12.064;2023-04-28T05:10:15;5.37;;;3.80;;
12052;SDS011;6087;48.982;12.064;2023-04-28T05:12:42;4.63;;;3.90;;
12052;SDS011;6087;48.982;12.064;2023-04-28T05:15:09;4.30;;;3.53;;
12052;SDS011;6087;48.982;12.064;2023-04-28T05:17:36;6.67;;;4.20;;
12052;SDS011;6087;48.982;12.064;2023-04-28T05:20:03;4.40;;;3.80;;
12052;SDS011;6087;48.982;12.064;2023-04-28T05:22:31;4.27;;;3.73;;
12052;SDS011;6087;48.982;12.064;2023-04-28T05:24:59;4.70;;;4.20;;
12052;SDS011;6087;48.982;12.064;2023-04-28T05:27:26;4.63;;;4.00;;
12052;SDS011;6087;48.982;12.064;2023-04-28T05:29:52;7.33;;;3.80;;
12052;SDS011;6087;48.982;12.064;2023-04-28T05:32:19;5.40;;;3.97;;
12052;SDS011;6087;48.982;12.064;2023-04-28T05:34:46;4.60;;;4.17;;
12052;SDS011;6087;48.982;12.064;2023-04-28T05:37:15;6.83;;;3.93;;
12052;SDS011;6087;48.982;12.064;2023-04-28T05:39:42;5.90;;;3.87;;
12052;SDS011;6087;48.982;12.064;2023-04-28T05:42:10;5.10;;;4.30;;
12052;SDS011;6087;48.982;12.064;2023-04-28T05:44:40;5.53;;;3.97;;
12052;SDS011;6087;48.982;12.064;2023-04-28T05:47:07;6.60;;;4.27;;
12052;SDS011;6087;48.982;12.064;2023-04-28T05:49:34;6.80;;;4.10;;
12052;SDS011;6087;48.982;12.064;2023-04-28T05:52:02;5.73;;;4.00;;
12052;SDS011;6087;48.982;12.064;2023-04-28T05:54:29;6.67;;;4.57;;
12052;SDS011;6087;48.982;12.064;2023-04-28T05:56:55;5.30;;;4.60;;
12052;SDS011;6087;48.982;12.064;2023-04-28T05:59:24;8.97;;;4.87;;
12052;SDS011;6087;48.982;12.064;2023-04-28T06:01:52;8.03;;;4.67;;
12052;SDS011;6087;48.982;12.064;2023-04-28T06:04:19;5.77;;;5.03;;
12052;SDS011;6087;48.982;12.064;2023-04-28T06:06:46;7.13;;;4.60;;
12052;SDS011;6087;48.982;12.064;2023-04-28T06:09:13;4.77;;;4.20;;
12052;SDS011;6087;48.982;12.064;2023-04-28T06:11:42;6.23;;;4.30;;
12052;SDS011;6087;48.982;12.064;2023-04-28T06:14:09;5.27;;;4.73;;
12052;SDS011;6087;48.982;12.064;2023-04-28T06:16:37;5.20;;;4.30;;
12052;SDS011;6087;48.982;12.064;2023-04-28T06:19:04;7.10;;;4.60;;
12052;SDS011;6087;48.982;12.064;2023-04-28T06:21:31;7.50;;;4.83;;
12052;SDS011;6087;48.982;12.064;2023-04-28T06:23:58;6.10;;;4.67;;
12052;SDS011;6087;48.982;12.064;2023-04-28T06:26:25;6.57;;;4.73;;
12052;SDS011;6087;48.982;12.064;2023-04-28T06:28:52;6.50;;;5.10;;
12052;SDS011;6087;48.982;12.064;2023-04-28T06:31:19;8.37;;;4.83;;
12052;SDS011;6087;48.982;12.064;2023-04-28T06:33:47;7.33;;;5.30;;
12052;SDS011;6087;48.982;12.064;2023-04-28T06:36:14;8.23;;;5.30;;
12052;SDS011;6087;48.982;12.064;2023-04-28T06:38:42;5.93;;;4.87;;
12052;SDS011;6087;48.982;12.064;2023-04-28T06:41:09;6.73;;;5.27;;
12052;SDS011;6087;48.982;12.064;2023-04-28T06:43:36;7.00;;;5.60;;
12052;SDS011;6087;48.982;12.064;2023-04-28T06:46:03;7.20;;;5.73;;
12052;SDS011;6087;48.982;12.064;2023-04-28T06:48:30;7.70;;;5.03;;
12052;SDS011;6087;48.982;12.064;2023-04-28T06:50:58;6.73;;;5.23;;
12052;SDS011;6087;48.982;12.064;2023-04-28T06:53:25;7.37;;;5.73;;
12052;SDS011;6087;48.982;12.064;2023-04-28T06:55:52;11.03;;;5.90;;
12052;SDS011;6087;48.982;12.064;2023-04-28T06:58:18;7.40;;;5.57;;
12052;SDS011;6087;48.982;12.064;2023-04-28T07:00:45;8.67;;;5.40;;
12052;SDS011;6087;48.982;12.064;2023-04-28T07:03:12;10.63;;;5.80;;
12052;SDS011;6087;48.982;12.064;2023-04-28T07:05:39;8.13;;;5.80;;
12052;SDS011;6087;48.982;12.064;2023-04-28T07:08:07;7.47;;;6.13;;
12052;SDS011;6087;48.982;12.064;2023-04-28T07:10:34;7.20;;;5.40;;
12052;SDS011;6087;48.982;12.064;2023-04-28T07:13:01;8.07;;;5.37;;
12052;SDS011;6087;48.982;12.064;2023-04-28T07:15:28;9.23;;;5.80;;
12052;SDS011;6087;48.982;12.064;2023-04-28T07:17:55;7.13;;;5.93;;
12052;SDS011;6087;48.982;12.064;2023-04-28T07:20:22;12.00;;;6.20;;
12052;SDS011;6087;48.982;12.064;2023-04-28T07:22:49;6.33;;;5.33;;
12052;SDS011;6087;48.982;12.064;2023-04-28T07:25:17;8.65;;;5.72;;
12052;SDS011;6087;48.982;12.064;2023-04-28T07:27:44;7.07;;;5.97;;
12052;SDS011;6087;48.982;12.064;2023-04-28T07:30:12;8.60;;;5.97;;
12052;SDS011;6087;48.982;12.064;2023-04-28T07:32:39;8.57;;;5.97;;
12052;SDS011;6087;48.982;12.064;2023-04-28T07:35:06;7.43;;;5.35;;
12052;SDS011;6087;48.982;12.064;2023-04-28T07:37:33;7.60;;;5.55;;
12052;SDS011;6087;48.982;12.064;2023-04-28T07:40:00;8.98;;;5.38;;
12052;SDS011;6087;48.982;12.064;2023-04-28T07:42:28;6.68;;;5.88;;
12052;SDS011;6087;48.982;12.064;2023-04-28T07:44:56;8.30;;;5.87;;
12052;SDS011;6087;48.982;12.064;2023-04-28T07:47:23;7.40;;;6.18;;
12052;SDS011;6087;48.982;12.064;2023-04-28T07:49:50;12.20;;;6.47;;
12052;SDS011;6087;48.982;12.064;2023-04-28T07:52:17;7.85;;;6.32;;
12052;SDS011;6087;48.982;12.064;2023-04-28T07:54:47;10.73;;;6.20;;
12052;SDS011;6087;48.982;12.064;2023-04-28T07:57:21;10.18;;;6.68;;
12052;SDS011;6087;48.982;12.064;2023-04-28T07:59:50;9.23;;;6.38;;
12052;SDS011;6087;48.982;12.064;2023-04-28T08:02:17;13.50;;;6.88;;
12052;SDS011;6087;48.982;12.064;2023-04-28T08:04:44;9.20;;;6.78;;
12052;SDS011;6087;48.982;12.064;2023-04-28T08:07:22;8.65;;;6.50;;
12052;SDS011;6087;48.982;12.064;2023-04-28T08:09:52;8.27;;;6.00;;
12052;SDS011;6087;48.982;12.064;2023-04-28T08:12:19;10.77;;;7.50;;
12052;SDS011;6087;48.982;12.064;2023-04-28T08:14:46;8.75;;;6.18;;
12052;SDS011;6087;48.982;12.064;2023-04-28T08:17:15;11.87;;;6.40;;
12052;SDS011;6087;48.982;12.064;2023-04-28T08:19:43;7.28;;;6.18;;
12052;SDS011;6087;48.982;12.064;2023-04-28T08:22:13;8.57;;;6.88;;
12052;SDS011;6087;48.982;12.064;2023-04-28T08:24:40;12.40;;;6.35;;
12052;SDS011;6087;48.982;12.064;2023-04-28T08:27:07;9.60;;;7.10;;
12052;SDS011;6087;48.982;12.064;2023-04-28T08:29:34;9.45;;;7.00;;
12052;SDS011;6087;48.982;12.064;2023-04-28T08:32:00;7.70;;;6.35;;
12052;SDS011;6087;48.982;12.064;2023-04-28T08:34:30;7.82;;;6.68;;
12052;SDS011;6087;48.982;12.064;2023-04-28T08:36:57;8.02;;;6.18;;
12052;SDS011;6087;48.982;12.064;2023-04-28T08:39:24;8.77;;;7.03;;
12052;SDS011;6087;48.982;12.064;2023-04-28T08:41:51;10.18;;;7.07;;
12052;SDS011;6087;48.982;12.064;2023-04-28T08:44:18;7.68;;;6.72;;
12052;SDS011;6087;48.982;12.064;2023-04-28T08:46:47;9.75;;;6.97;;
12052;SDS011;6087;48.982;12.064;2023-04-28T08:49:19;8.10;;;7.25;;
12052;SDS011;6087;48.982;12.064;2023-04-28T08:51:51;7.18;;;6.47;;
12052;SDS011;6087;48.982;12.064;2023-04-28T08:54:22;9.18;;;6.20;;
12052;SDS011;6087;48.982;12.064;2023-04-28T08:56:53;8.20;;;6.53;;
12052;SDS011;6087;48.982;12.064;2023-04-28T08:59:21;7.55;;;6.85;;
12052;SDS011;6087;48.982;12.064;2023-04-28T09:01:49;8.10;;;6.97;;
12052;SDS011;6087;48.982;12.064;2023-04-28T09:04:17;9.82;;;6.82;;
12052;SDS011;6087;48.982;12.064;2023-04-28T09:06:44;8.88;;;6.32;;
12052;SDS011;6087;48.982;12.064;2023-04-28T09:09:19;7.93;;;6.40;;
12052;SDS011;6087;48.982;12.064;2023-04-28T09:11:49;12.03;;;7.37;;
12052;SDS011;6087;48.982;12.064;2023-04-28T09:14:17;9.05;;;6.80;;
12052;SDS011;6087;48.982;12.064;2023-04-28T09:16:44;8.55;;;7.05;;
12052;SDS011;6087;48.982;12.064;2023-04-28T09:19:11;9.55;;;6.78;;
12052;SDS011;6087;48.982;12.064;2023-04-28T09:21:44;8.82;;;7.50;;
12052;SDS011;6087;48.982;12.064;2023-04-28T09:24:18;8.55;;;7.75;;
12052;SDS011;6087;48.982;12.064;2023-04-28T09:26:51;8.20;;;7.47;;
12052;SDS011;6087;48.982;12.064;2023-04-28T09:29:21;8.05;;;7.25;;
12052;SDS011;6087;48.982;12.064;2023-04-28T09:31:48;9.30;;;6.93;;
12052;SDS011;6087;48.982;12.064;2023-04-28T09:34:15;8.98;;;7.28;;
12052;SDS011;6087;48.982;12.064;2023-04-28T09:36:42;9.55;;;6.88;;
12052;SDS011;6087;48.982;12.064;2023-04-28T09:39:09;12.70;;;7.20;;
12052;SDS011;6087;48.982;12.064;2023-04-28T09:41:37;9.10;;;7.35;;
12052;SDS011;6087;48.982;12.064;2023-04-28T09:44:09;9.63;;;7.35;;
12052;SDS011;6087;48.982;12.064;2023-04-28T09:46:36;9.88;;;7.97;;
12052;SDS011;6087;48.982;12.064;2023-04-28T09:49:03;8.00;;;7.22;;
12052;SDS011;6087;48.982;12.064;2023-04-28T09:51:30;9.52;;;8.18;;
12052;SDS011;6087;48.982;12.064;2023-04-28T09:53:59;8.93;;;7.43;;
12052;SDS011;6087;48.982;12.064;2023-04-28T09:56:27;9.40;;;7.65;;
12052;SDS011;6087;48.982;12.064;2023-04-28T09:58:56;9.05;;;7.20;;
12052;SDS011;6087;48.982;12.064;2023-04-28T10:01:24;9.23;;;8.30;;
12052;SDS011;6087;48.982;12.064;2023-04-28T10:03:52;10.95;;;8.43;;
12052;SDS011;6087;48.982;12.064;2023-04-28T10:06:21;9.65;;;8.43;;
12052;SDS011;6087;48.982;12.064;2023-04-28T10:08:52;8.68;;;7.22;;
12052;SDS011;6087;48.982;12.064;2023-04-28T10:11:21;11.15;;;8.45;;
12052;SDS011;6087;48.982;12.064;2023-04-28T10:13:49;11.27;;;7.75;;
12052;SDS011;6087;48.982;12.064;2023-04-28T10:16:20;10.07;;;8.27;;
12052;SDS011;6087;48.982;12.064;2023-04-28T10:18:55;9.82;;;7.78;;
12052;SDS011;6087;48.982;12.064;2023-04-28T10:21:22;9.88;;;8.60;;
12052;SDS011;6087;48.982;12.064;2023-04-28T10:23:58;9.07;;;7.68;;
12052;SDS011;6087;48.982;12.064;2023-04-28T10:29:30;9.15;;;8.18;;
12052;SDS011;6087;48.982;12.064;2023-04-28T10:32:15;13.48;;;8.25;;
12052;SDS011;6087;48.982;12.064;2023-04-28T10:34:43;8.80;;;7.88;;
12052;SDS011;6087;48.982;12.064;2023-04-28T10:37:11;9.48;;;8.55;;
12052;SDS011;6087;48.982;12.064;2023-04-28T10:39:39;8.65;;;7.50;;
12052;SDS011;6087;48.982;12.064;2023-04-28T10:45:07;8.73;;;7.82;;
12052;SDS011;6087;48.982;12.064;2023-04-28T10:50:30;8.27;;;7.35;;
12052;SDS011;6087;48.982;12.064;2023-04-28T10:52:57;12.68;;;8.55;;
12052;SDS011;6087;48.982;12.064;2023-04-28T10:55:30;12.55;;;8.70;;
12052;SDS011;6087;48.982;12.064;2023-04-28T11:03:51;10.90;;;9.25;;
12052;SDS011;6087;48.982;12.064;2023-04-28T11:06:24;10.40;;;8.98;;
12052;SDS011;6087;48.982;12.064;2023-04-28T11:08:52;10.73;;;9.63;;
12052;SDS011;6087;48.982;12.064;2023-04-28T11:11:21;10.77;;;9.32;;
12052;SDS011;6087;48.982;12.064;2023-04-28T11:13:50;11.20;;;9.32;;
12052;SDS011;6087;48.982;12.064;2023-04-28T11:16:19;10.33;;;9.33;;
12052;SDS011;6087;48.982;12.064;2023-04-28T11:19:01;9.73;;;8.75;;
12052;SDS011;6087;48.982;12.064;2023-04-28T11:21:29;10.65;;;9.55;;
12052;SDS011;6087;48.982;12.064;2023-04-28T11:23:57;11.73;;;9.30;;
12052;SDS011;6087;48.982;12.064;2023-04-28T11:26:24;12.40;;;9.75;;
12052;SDS011;6087;48.982;12.064;2023-04-28T11:28:52;9.68;;;8.18;;
12052;SDS011;6087;48.982;12.064;2023-04-28T11:31:20;12.52;;;9.38;;
12052;SDS011;6087;48.982;12.064;2023-04-28T11:33:49;10.05;;;8.93;;
12052;SDS011;6087;48.982;12.064;2023-04-28T11:36:26;10.35;;;8.45;;
12052;SDS011;6087;48.982;12.064;2023-04-28T11:38:56;10.30;;;9.20;;
12052;SDS011;6087;48.982;12.064;2023-04-28T11:41:23;11.82;;;8.15;;
12052;SDS011;6087;48.982;12.064;2023-04-28T11:43:50;11.20;;;9.65;;
12052;SDS011;6087;48.982;12.064;2023-04-28T11:46:18;9.43;;;8.52;;
12052;SDS011;6087;48.982;12.064;2023-04-28T11:48:45;9.38;;;8.27;;
12052;SDS011;6087;48.982;12.064;2023-04-28T11:51:35;10.10;;;9.07;;
12052;SDS011;6087;48.982;12.064;2023-04-28T11:54:09;9.82;;;8.82;;
12052;SDS011;6087;48.982;12.064;2023-04-28T11:56:38;12.15;;;8.85;;
12052;SDS011;6087;48.982;12.064;2023-04-28T11:59:06;10.02;;;8.82;;
12052;SDS011;6087;48.982;12.064;2023-04-28T12:01:34;12.10;;;9.15;;
12052;SDS011;6087;48.982;12.064;2023-04-28T12:04:10;10.35;;;9.23;;
12052;SDS011;6087;48.982;12.064;2023-04-28T12:06:42;10.88;;;9.70;;
12052;SDS011;6087;48.982;12.064;2023-04-28T12:09:15;9.77;;;8.77;;
12052;SDS011;6087;48.982;12.064;2023-04-28T12:11:51;10.80;;;8.80;;
12052;SDS011;6087;48.982;12.064;2023-04-28T12:14:21;12.30;;;8.88;;
12052;SDS011;6087;48.982;12.064;2023-04-28T12:16:48;9.70;;;8.50;;
12052;SDS011;6087;48.982;12.064;2023-04-28T12:19:16;13.88;;;9.50;;
12052;SDS011;6087;48.982;12.064;2023-04-28T12:21:56;10.45;;;9.35;;
12052;SDS011;6087;48.982;12.064;2023-04-28T12:24:28;10.13;;;8.80;;
12052;SDS011;6087;48.982;12.064;2023-04-28T12:29:41;10.07;;;9.07;;
12052;SDS011;6087;48.982;12.064;2023-04-28T12:32:10;11.18;;;9.60;;
12052;SDS011;6087;48.982;12.064;2023-04-28T12:34:37;12.63;;;9.93;;
12052;SDS011;6087;48.982;12.064;2023-04-28T12:37:07;13.07;;;9.95;;
12052;SDS011;6087;48.982;12.064;2023-04-28T12:39:34;10.43;;;9.27;;
12052;SDS011;6087;48.982;12.064;2023-04-28T12:42:02;10.93;;;8.68;;
12052;SDS011;6087;48.982;12.064;2023-04-28T12:44:33;12.07;;;8.85;;
12052;SDS011;6087;48.982;12.064;2023-04-28T12:47:02;10.95;;;8.82;;
12052;SDS011;6087;48.982;12.064;2023-04-28T12:49:29;11.38;;;9.13;;
12052;SDS011;6087;48.982;12.064;2023-04-28T12:51:56;13.65;;;9.43;;
12052;SDS011;6087;48.982;12.064;2023-04-28T12:54:24;9.98;;;9.02;;
12052;SDS011;6087;48.982;12.064;2023-04-28T12:56:51;10.27;;;9.25;;
12052;SDS011;6087;48.982;12.064;2023-04-28T12:59:19;10.63;;;9.55;;
12052;SDS011;6087;48.982;12.064;2023-04-28T13:01:46;10.35;;;9.35;;
12052;SDS011;6087;48.982;12.064;2023-04-28T13:04:13;11.13;;;9.88;;
12052;SDS011;6087;48.982;12.064;2023-04-28T13:06:40;10.93;;;9.77;;
12052;SDS011;6087;48.982;12.064;2023-04-28T13:09:08;10.52;;;9.43;;
12052;SDS011;6087;48.982;12.064;2023-04-28T13:11:36;11.40;;;9.20;;
12052;SDS011;6087;48.982;12.064;2023-04-28T13:14:04;13.55;;;11.40;;
12052;SDS011;6087;48.982;12.064;2023-04-28T13:16:31;10.68;;;9.32;;
12052;SDS011;6087;48.982;12.064;2023-04-28T13:18:58;12.00;;;9.88;;
12052;SDS011;6087;48.982;12.064;2023-04-28T13:21:25;11.15;;;9.43;;
12052;SDS011;6087;48.982;12.064;2023-04-28T13:23:52;10.50;;;9.55;;
12052;SDS011;6087;48.982;12.064;2023-04-28T13:26:20;11.30;;;8.93;;
12052;SDS011;6087;48.982;12.064;2023-04-28T13:28:49;10.35;;;9.30;;
12052;SDS011;6087;48.982;12.064;2023-04-28T13:31:17;10.90;;;9.13;;
12052;SDS011;6087;48.982;12.064;2023-04-28T13:33:44;10.38;;;9.18;;
12052;SDS011;6087;48.982;12.064;2023-04-28T13:36:11;12.43;;;9.13;;
12052;SDS011;6087;48.982;12.064;2023-04-28T13:38:38;11.40;;;9.75;;
12052;SDS011;6087;48.982;12.064;2023-04-28T13:41:04;11.15;;;8.98;;
12052;SDS011;6087;48.982;12.064;2023-04-28T13:43:34;10.20;;;8.65;;
12052;SDS011;6087;48.982;12.064;2023-04-28T13:46:02;10.95;;;9.75;;
12052;SDS011;6087;48.982;12.064;2023-04-28T13:48:32;9.80;;;8.77;;
12052;SDS011;6087;48.982;12.064;2023-04-28T13:51:00;11.77;;;9.35;;
12052;SDS011;6087;48.982;12.064;2023-04-28T13:53:27;10.73;;;8.77;;
12052;SDS011;6087;48.982;12.064;2023-04-28T13:55:54;10.18;;;9.23;;
12052;SDS011;6087;48.982;12.064;2023-04-28T13:58:22;9.40;;;8.55;;
12052;SDS011;6087;48.982;12.064;2023-04-28T14:00:49;10.43;;;8.48;;
12052;SDS011;6087;48.982;12.064;2023-04-28T14:03:17;11.30;;;8.88;;
12052;SDS011;6087;48.982;12.064;2023-04-28T14:05:45;9.85;;;8.77;;
12052;SDS011;6087;48.982;12.064;2023-04-28T14:08:13;9.68;;;8.77;;
12052;SDS011;6087;48.982;12.064;2023-04-28T14:10:40;11.52;;;9.32;;
12052;SDS011;6087;48.982;12.064;2023-04-28T14:13:07;11.35;;;8.93;;
12052;SDS011;6087;48.982;12.064;2023-04-28T14:15:41;10.60;;;9.48;;
12052;SDS011;6087;48.982;12.064;2023-04-28T14:18:09;10.82;;;9.75;;
12052;SDS011;6087;48.982;12.064;2023-04-28T14:20:38;11.00;;;9.30;;
12052;SDS011;6087;48.982;12.064;2023-04-28T14:23:05;10.98;;;9.88;;
12052;SDS011;6087;48.982;12.064;2023-04-28T14:25:32;10.45;;;9.35;;
12052;SDS011;6087;48.982;12.064;2023-04-28T14:27:59;10.43;;;8.57;;
12052;SDS011;6087;48.982;12.064;2023-04-28T14:30:26;10.02;;;9.02;;
12052;SDS011;6087;48.982;12.064;2023-04-28T14:32:53;10.65;;;8.93;;
12052;SDS011;6087;48.982;12.064;2023-04-28T14:35:20;11.60;;;9.27;;
12052;SDS011;6087;48.982;12.064;2023-04-28T14:37:48;10.70;;;9.60;;
12052;SDS011;6087;48.982;12.064;2023-04-28T14:40:15;10.40;;;9.35;;
12052;SDS011;6087;48.982;12.064;2023-04-28T14:42:42;9.90;;;8.93;;
12052;SDS011;6087;48.982;12.064;2023-04-28T14:45:09;11.20;;;10.07;;
12052;SDS011;6087;48.982;12.064;2023-04-28T14:47:36;11.68;;;9.57;;
12052;SDS011;6087;48.982;12.064;2023-04-28T14:50:04;13.50;;;9.40;;
12052;SDS011;6087;48.982;12.064;2023-04-28T14:52:32;10.27;;;9.27;;
12052;SDS011;6087;48.982;12.064;2023-04-28T14:55:01;10.80;;;9.77;;
12052;SDS011;6087;48.982;12.064;2023-04-28T14:57:29;10.57;;;9.48;;
12052;SDS011;6087;48.982;12.064;2023-04-28T14:59:58;16.70;;;10.02;;
12052;SDS011;6087;48.982;12.064;2023-04-28T15:02:25;10.25;;;9.25;;
12052;SDS011;6087;48.982;12.064;2023-04-28T15:04:53;11.45;;;10.13;;
12052;SDS011;6087;48.982;12.064;2023-04-28T15:07:20;12.88;;;11.18;;